Wilsonia, California
Current Conditions -  °F | °C
As of 9:08 AM on Tuesday 27 Jan 2015 (Local Time) from KBIH Reporting Station
Overcast Overcast  
Wind Chill: 47°   Ceiling: 900
Heat Index: 47°   Visibility: 10mi
Dew Point: 43°   Wind: 0mph
Humidity: 86%   Direction: NA
Pressure: 30.2"   Gusts: NA
Location:  36.7872°N, 118.66°W
Report Text: KBIH 271708Z AUTO 00000KT 10SM BKN009 BKN030 OVC050 08/06 A3020 RMK AO2 T00830061
Loading
Personal Weather Stations






























Interactive Weather Map New forecast layout! Learn more

10-Day Weather Forecast

Advertisements
Track Severe Weather on mobile